AZG613 UBBB-RJBB
Flight info
| Callsign | AZG613 |
|---|---|
| Flight time | N/A |
| Altitude | 29000 |
| Route | BETEK N55 BALUN/K0902F290 N55 TITIL N161 MASAV N55 OGANU P574 ASTAS L988 LAGMO B715 KUDEB M98 ERSIP/K0917F310 M98 BD W241 IKT A810 TELOK/K0922F311 A345 MANLI/K0920S0950 A345 HLD B451 UGABI W39 YNJ R224 VASRO/K0919F330 M825 KANSU/N0498F320 B332 IGRAS/N0499F330 Y332 MIHOU Y39 OYE ATMUG |
| Aircraft | B77L/H-SDE1E2E3FGHIJ2J3J4J5M1RWXY/LB1D1 |
Departure
| Time | 2026-05-04 22:36 |
|---|---|
| Airport | Heydar Aliyev International Airport (UBBB) |
Arrival
| Time | N/A |
|---|---|
| Airport | Kansai International Airport (RJBB) |
| Time | Latitude | Longitude | Altitude | Speed | Heading |
|---|---|---|---|---|---|
| 2026-05-04 22:18 | 40.45841 | 50.05861 | 19 ft | 0 kts | 269° |
| 2026-05-04 22:25 | 40.45841 | 50.05875 | 19 ft | 4 kts | 269° |
| 2026-05-04 22:25 | 40.45841 | 50.05910 | 19 ft | 4 kts | 269° |
| 2026-05-04 22:26 | 40.45842 | 50.05939 | 19 ft | 4 kts | 254° |
| 2026-05-04 22:26 | 40.45855 | 50.05963 | 22 ft | 4 kts | 200° |
| 2026-05-04 22:26 | 40.45879 | 50.05968 | 21 ft | 4 kts | 179° |
| 2026-05-04 22:26 | 40.45905 | 50.05968 | 22 ft | 2 kts | 179° |
| 2026-05-04 22:27 | 40.45906 | 50.05968 | 19 ft | 0 kts | 179° |
| 2026-05-04 22:29 | 40.45895 | 50.05968 | 19 ft | 4 kts | 179° |
| 2026-05-04 22:30 | 40.45859 | 50.05979 | 19 ft | 7 kts | 146° |
| 2026-05-04 22:30 | 40.45829 | 50.06046 | 19 ft | 10 kts | 97° |
| 2026-05-04 22:30 | 40.45774 | 50.06109 | 19 ft | 13 kts | 172° |
| 2026-05-04 22:30 | 40.45741 | 50.06110 | 19 ft | 0 kts | 180° |
| 2026-05-04 22:33 | 40.45734 | 50.06110 | 19 ft | 6 kts | 180° |
| 2026-05-04 22:33 | 40.45711 | 50.06113 | 19 ft | 4 kts | 168° |
| 2026-05-04 22:34 | 40.45686 | 50.06126 | 18 ft | 4 kts | 154° |
| 2026-05-04 22:34 | 40.45657 | 50.06183 | 17 ft | 14 kts | 105° |
| 2026-05-04 22:34 | 40.45670 | 50.06316 | 15 ft | 14 kts | 43° |
| 2026-05-04 22:34 | 40.45697 | 50.06322 | 15 ft | 0 kts | 0° |
| 2026-05-04 22:35 | 40.45819 | 50.06323 | 15 ft | 52 kts | 360° |
| 2026-05-04 22:35 | 40.46420 | 50.06313 | 17 ft | 122 kts | 359° |
| 2026-05-04 22:35 | 40.47469 | 50.06291 | 20 ft | 178 kts | 358° |
| 2026-05-04 22:36 | 40.48763 | 50.06283 | 325 ft | 192 kts | 0° |
| 2026-05-04 22:36 | 40.50159 | 50.06013 | 666 ft | 214 kts | 339° |
| 2026-05-04 22:36 | 40.51478 | 50.05007 | 1196 ft | 223 kts | 334° |
| 2026-05-04 22:36 | 40.52972 | 50.04569 | 1736 ft | 226 kts | 4° |
| 2026-05-04 22:37 | 40.54594 | 50.04618 | 2033 ft | 242 kts | 356° |
| 2026-05-04 22:37 | 40.56303 | 50.04701 | 1978 ft | 251 kts | 17° |
| 2026-05-04 22:37 | 40.57758 | 50.05970 | 1961 ft | 257 kts | 53° |
| 2026-05-04 22:37 | 40.58351 | 50.08105 | 1975 ft | 261 kts | 86° |
| 2026-05-04 22:38 | 40.58153 | 50.10467 | 1980 ft | 258 kts | 90° |
| 2026-05-04 22:38 | 40.58130 | 50.12825 | 1998 ft | 261 kts | 84° |
| 2026-05-04 22:38 | 40.58218 | 50.15235 | 1988 ft | 267 kts | 83° |
| 2026-05-04 22:38 | 40.58316 | 50.17652 | 1977 ft | 262 kts | 83° |
| 2026-05-04 22:39 | 40.58406 | 50.20020 | 1968 ft | 258 kts | 84° |
| 2026-05-04 22:39 | 40.58491 | 50.22382 | 1984 ft | 259 kts | 84° |
| 2026-05-04 22:39 | 40.58575 | 50.24756 | 1981 ft | 260 kts | 84° |
| 2026-05-04 22:39 | 40.58656 | 50.27104 | 1976 ft | 261 kts | 84° |
| 2026-05-04 22:40 | 40.58873 | 50.29442 | 1966 ft | 256 kts | 72° |
| 2026-05-04 22:40 | 40.59516 | 50.31606 | 1987 ft | 252 kts | 59° |
| 2026-05-04 22:40 | 40.60369 | 50.33616 | 2006 ft | 252 kts | 57° |
| 2026-05-04 22:40 | 40.61266 | 50.35623 | 1974 ft | 255 kts | 57° |
| 2026-05-04 22:41 | 40.62157 | 50.37631 | 1987 ft | 255 kts | 58° |
| 2026-05-04 22:41 | 40.63044 | 50.39645 | 2046 ft | 254 kts | 57° |
| 2026-05-04 22:41 | 40.63923 | 50.41613 | 2539 ft | 256 kts | 54° |
| 2026-05-04 22:41 | 40.65245 | 50.43283 | 2725 ft | 278 kts | 27° |
| 2026-05-04 22:42 | 40.67133 | 50.44087 | 2976 ft | 295 kts | 11° |
| 2026-05-04 22:42 | 40.69209 | 50.44656 | 3409 ft | 311 kts | 12° |
| 2026-05-04 22:42 | 40.71356 | 50.45275 | 4059 ft | 320 kts | 11° |
| 2026-05-04 22:42 | 40.73571 | 50.45930 | 4640 ft | 332 kts | 11° |
| 2026-05-04 22:43 | 40.75854 | 50.46618 | 5266 ft | 339 kts | 12° |
| 2026-05-04 22:43 | 40.78159 | 50.47324 | 6060 ft | 341 kts | 12° |
| 2026-05-04 22:43 | 40.80471 | 50.48038 | 6783 ft | 343 kts | 12° |
| 2026-05-04 22:43 | 40.82771 | 50.48752 | 7540 ft | 344 kts | 13° |
| 2026-05-04 22:44 | 40.85098 | 50.49477 | 8333 ft | 344 kts | 13° |
| 2026-05-04 22:44 | 40.87435 | 50.50209 | 9050 ft | 347 kts | 13° |
| 2026-05-04 22:44 | 40.89793 | 50.50947 | 9755 ft | 350 kts | 13° |
| 2026-05-04 22:44 | 40.92171 | 50.51691 | 10391 ft | 353 kts | 13° |
| 2026-05-04 22:45 | 40.94581 | 50.52446 | 10996 ft | 358 kts | 12° |